Time;durP1;ratioP1;P1;durP2;ratioP2;P2;SDS_P1;SDS_P2;PMS_P1;PMS_P2;Temp;Humidity;BMP_temperature;BMP_pressure;BME280_temperature;BME280_humidity;BME280_pressure;Samples;Min_cycle;Max_cycle;Signal;HPM_P1;HPM_P2
2023/08/18 00:01:00;;;;;;;4.82;4.13;;;18.10;99.90;;;;;;5017955;28;20036;-71
2023/08/18 00:03:26;;;;;;;3.28;2.78;;;18.10;99.90;;;;;;5001725;28;20484;-72
2023/08/18 00:05:53;;;;;;;5.43;3.20;;;18.00;99.90;;;;;;5018926;28;20037;-72
2023/08/18 00:08:22;;;;;;;4.65;4.25;;;18.10;99.90;;;;;;5013645;28;20033;-71
2023/08/18 00:10:48;;;;;;;4.57;2.60;;;18.10;99.90;;;;;;5008049;28;20032;-73
2023/08/18 00:13:14;;;;;;;3.92;3.53;;;18.00;99.90;;;;;;5011455;28;20037;-71
2023/08/18 00:15:41;;;;;;;3.30;3.00;;;18.00;99.90;;;;;;4995916;28;20103;-72
2023/08/18 00:18:08;;;;;;;3.50;2.80;;;18.10;99.90;;;;;;5010333;28;20036;-72
2023/08/18 00:20:34;;;;;;;3.50;3.20;;;18.10;99.90;;;;;;5008241;28;20128;-72
2023/08/18 00:23:01;;;;;;;3.50;3.13;;;18.10;99.90;;;;;;5011460;28;20037;-72
2023/08/18 00:25:27;;;;;;;3.22;2.92;;;18.10;99.90;;;;;;5002251;28;20041;-72
2023/08/18 00:27:54;;;;;;;3.40;2.15;;;18.00;99.90;;;;;;5003977;28;20033;-73
2023/08/18 00:30:24;;;;;;;4.03;3.63;;;18.10;99.90;;;;;;5009972;28;20041;-71
2023/08/18 00:32:51;;;;;;;4.45;3.10;;;18.10;99.90;;;;;;4990948;28;20052;-72
2023/08/18 00:35:18;;;;;;;3.35;2.58;;;18.10;99.90;;;;;;4991106;28;20033;-72
2023/08/18 00:37:48;;;;;;;2.90;2.70;;;18.00;99.90;;;;;;4992317;28;20029;-72
2023/08/18 00:40:16;;;;;;;3.10;2.72;;;18.00;99.90;;;;;;5005018;28;20840;-72
2023/08/18 00:42:43;;;;;;;2.58;2.38;;;18.00;99.90;;;;;;4988298;28;20052;-72
2023/08/18 00:45:10;;;;;;;2.42;2.08;;;17.90;99.90;;;;;;4978309;28;20044;-71
2023/08/18 00:47:37;;;;;;;4.90;3.45;;;18.00;99.90;;;;;;5020979;28;20496;-72
2023/08/18 00:50:05;;;;;;;4.78;3.17;;;17.90;99.90;;;;;;4986857;28;20035;-71
2023/08/18 00:52:32;;;;;;;2.10;1.90;;;17.90;99.90;;;;;;5008851;28;20577;-73
2023/08/18 00:54:59;;;;;;;4.00;3.70;;;17.90;99.90;;;;;;5009664;28;20404;-71
2023/08/18 00:57:26;;;;;;;4.95;2.72;;;17.90;99.90;;;;;;5009192;28;20538;-71
2023/08/18 00:59:53;;;;;;;3.22;2.80;;;17.90;99.90;;;;;;5004319;28;20028;-71
2023/08/18 01:02:19;;;;;;;2.65;2.38;;;17.90;99.90;;;;;;5009877;28;20384;-72
2023/08/18 01:04:46;;;;;;;4.88;3.97;;;17.90;99.90;;;;;;4997651;28;20044;-72
2023/08/18 01:07:13;;;;;;;2.83;2.58;;;17.90;99.90;;;;;;4975556;28;20389;-71
2023/08/18 01:09:40;;;;;;;5.55;3.47;;;17.90;99.90;;;;;;4988258;28;21070;-71
2023/08/18 01:12:36;;;;;;;3.90;3.60;;;17.90;99.90;;;;;;5018907;28;20520;-71
2023/08/18 01:15:28;;;;;;;3.25;2.63;;;17.90;99.90;;;;;;5020409;28;20484;-73
2023/08/18 01:17:58;;;;;;;2.97;2.15;;;17.90;99.90;;;;;;5011983;28;20048;-71
2023/08/18 01:20:26;;;;;;;3.25;2.95;;;17.90;99.90;;;;;;5007720;28;20539;-72
2023/08/18 01:23:00;;;;;;;2.78;2.15;;;17.90;99.90;;;;;;4986201;28;20037;-73
2023/08/18 01:25:27;;;;;;;4.85;2.70;;;17.90;99.90;;;;;;5009258;28;20886;-71
2023/08/18 01:27:55;;;;;;;4.78;3.20;;;17.90;99.90;;;;;;4981775;28;21801;-70
2023/08/18 01:30:27;;;;;;;3.17;2.88;;;17.90;99.90;;;;;;5010291;28;20418;-72
2023/08/18 01:33:21;;;;;;;5.43;3.17;;;17.80;99.90;;;;;;5012995;28;20025;-73
2023/08/18 01:35:51;;;;;;;2.85;2.38;;;17.90;99.90;;;;;;5001643;28;20041;-71
2023/08/18 01:38:21;;;;;;;5.63;3.00;;;17.80;99.90;;;;;;5019450;28;20452;-71
2023/08/18 01:40:48;;;;;;;3.10;2.80;;;17.80;99.90;;;;;;5010149;28;20484;-70
2023/08/18 01:43:14;;;;;;;3.08;2.75;;;17.80;99.90;;;;;;5004264;28;20044;-70
2023/08/18 01:45:41;;;;;;;3.65;2.72;;;17.80;99.90;;;;;;5013560;28;20025;-71
2023/08/18 01:48:07;;;;;;;3.22;2.53;;;17.80;99.90;;;;;;4989034;28;20040;-73
2023/08/18 01:50:34;;;;;;;4.70;3.70;;;17.80;99.90;;;;;;5010342;28;20040;-71
2023/08/18 01:53:01;;;;;;;6.15;3.95;;;17.80;99.90;;;;;;4989275;28;20033;-72
2023/08/18 01:55:29;;;;;;;3.47;3.00;;;17.80;99.90;;;;;;5017061;28;20750;-72
2023/08/18 01:57:56;;;;;;;3.75;3.10;;;17.70;99.90;;;;;;5002441;28;20016;-71
2023/08/18 02:00:22;;;;;;;2.00;1.63;;;17.70;99.90;;;;;;5019981;28;20037;-72
2023/08/18 02:02:49;;;;;;;2.53;2.13;;;17.70;99.90;;;;;;5011655;28;20708;-72
2023/08/18 02:05:16;;;;;;;5.53;4.25;;;17.80;99.90;;;;;;4994211;28;20037;-71
2023/08/18 02:07:42;;;;;;;4.65;3.60;;;17.70;99.90;;;;;;4988961;28;20108;-70
2023/08/18 02:10:09;;;;;;;3.30;2.78;;;17.70;99.90;;;;;;4992288;28;20044;-72
2023/08/18 02:12:35;;;;;;;3.30;2.35;;;17.70;99.90;;;;;;5010340;28;20033;-73
2023/08/18 02:15:02;;;;;;;2.60;2.15;;;17.70;99.90;;;;;;5011519;28;20072;-70
2023/08/18 02:17:30;;;;;;;2.97;2.42;;;17.70;99.90;;;;;;4983592;28;20603;-71
2023/08/18 02:20:00;;;;;;;2.50;2.10;;;17.70;99.90;;;;;;5023322;28;20044;-71
2023/08/18 02:22:26;;;;;;;3.67;3.10;;;17.70;99.90;;;;;;4988948;28;20034;-72
2023/08/18 02:24:53;;;;;;;3.65;3.13;;;17.60;99.90;;;;;;5014319;28;20244;-73
2023/08/18 02:27:20;;;;;;;3.17;2.88;;;17.60;99.90;;;;;;4993470;28;20041;-73
2023/08/18 02:29:46;;;;;;;3.13;2.53;;;17.60;99.90;;;;;;4979668;28;20052;-71
2023/08/18 02:32:13;;;;;;;3.92;3.50;;;17.60;99.90;;;;;;5011087;28;20032;-72
2023/08/18 02:34:39;;;;;;;4.93;3.92;;;17.60;99.90;;;;;;4981416;28;20411;-72
2023/08/18 02:37:05;;;;;;;4.43;2.88;;;17.60;99.90;;;;;;5012299;28;20036;-72
2023/08/18 02:39:33;;;;;;;4.28;3.15;;;17.60;99.90;;;;;;4974365;28;20379;-71
2023/08/18 02:41:59;;;;;;;5.03;4.43;;;17.60;99.90;;;;;;5021043;28;20040;-72
2023/08/18 02:44:26;;;;;;;3.90;3.00;;;17.60;99.90;;;;;;5023269;28;20036;-72
2023/08/18 02:46:52;;;;;;;4.97;4.55;;;17.50;99.90;;;;;;5007367;28;20025;-72
2023/08/18 02:49:19;;;;;;;6.22;4.10;;;17.50;99.90;;;;;;4998140;28;20036;-72
2023/08/18 02:51:45;;;;;;;4.72;4.32;;;17.50;99.90;;;;;;5000300;28;20040;-70
2023/08/18 02:54:11;;;;;;;3.95;3.63;;;17.50;99.90;;;;;;4996175;28;20041;-73
2023/08/18 02:56:38;;;;;;;5.65;5.18;;;17.50;99.90;;;;;;5017382;28;20060;-72
2023/08/18 02:59:06;;;;;;;4.72;4.07;;;17.50;99.90;;;;;;4984709;28;20037;-71
2023/08/18 03:01:33;;;;;;;4.90;4.03;;;17.50;99.90;;;;;;4999200;28;20654;-73
2023/08/18 03:04:00;;;;;;;3.58;3.28;;;17.50;99.90;;;;;;4990028;28;20380;-72
2023/08/18 03:06:27;;;;;;;5.00;4.60;;;17.60;99.90;;;;;;5019076;28;20040;-73
2023/08/18 03:08:53;;;;;;;5.32;4.82;;;17.60;99.90;;;;;;5020146;28;20040;-72
2023/08/18 03:11:23;;;;;;;4.10;3.70;;;17.60;99.90;;;;;;4976914;28;20052;-72
2023/08/18 03:13:51;;;;;;;6.20;5.40;;;17.60;99.90;;;;;;5010152;28;20037;-71
2023/08/18 03:16:18;;;;;;;5.20;4.40;;;17.60;99.90;;;;;;5010642;28;20150;-71
2023/08/18 03:18:45;;;;;;;10.88;5.28;;;17.60;99.90;;;;;;5011349;28;20137;-71
2023/08/18 03:21:12;;;;;;;7.13;6.43;;;17.50;99.90;;;;;;4976313;28;21278;-73
2023/08/18 03:23:38;;;;;;;7.28;5.95;;;17.60;99.90;;;;;;5007102;28;20025;-73
2023/08/18 03:26:06;;;;;;;6.95;6.30;;;17.60;99.90;;;;;;5001758;28;20045;-72
2023/08/18 03:28:37;;;;;;;5.65;4.78;;;17.50;99.90;;;;;;5019974;28;20035;-72
2023/08/18 03:31:06;;;;;;;7.20;6.50;;;17.50;99.90;;;;;;5019802;28;20020;-71
2023/08/18 03:33:34;;;;;;;8.52;7.65;;;17.50;99.90;;;;;;5014535;28;20052;-72
2023/08/18 03:36:03;;;;;;;5.97;5.35;;;17.50;99.90;;;;;;5006155;28;20628;-71
2023/08/18 03:38:29;;;;;;;6.78;5.80;;;17.50;99.90;;;;;;4998809;28;20383;-71
2023/08/18 03:41:03;;;;;;;6.93;5.07;;;17.50;99.90;;;;;;4992861;28;20212;-72
2023/08/18 03:43:31;;;;;;;7.13;6.43;;;17.60;99.90;;;;;;5010711;28;20471;-72
2023/08/18 03:46:03;;;;;;;7.43;6.70;;;17.60;99.90;;;;;;4992325;28;20534;-72
2023/08/18 03:48:29;;;;;;;8.10;7.30;;;17.60;99.90;;;;;;5004155;28;20056;-72
2023/08/18 03:50:58;;;;;;;8.57;7.78;;;17.60;99.90;;;;;;5020771;28;20475;-72
2023/08/18 03:53:25;;;;;;;8.60;7.75;;;17.50;99.90;;;;;;4999436;28;20041;-72
2023/08/18 03:55:59;;;;;;;8.93;7.97;;;17.50;99.90;;;;;;5013625;28;20087;-71
2023/08/18 03:58:26;;;;;;;7.75;6.55;;;17.50;99.90;;;;;;5027382;28;20044;-71
2023/08/18 04:01:01;;;;;;;11.02;9.93;;;17.50;99.90;;;;;;5010235;28;20047;-71
2023/08/18 04:03:28;;;;;;;8.20;7.40;;;17.50;99.90;;;;;;5010777;28;20037;-71
2023/08/18 04:05:55;;;;;;;10.70;9.45;;;17.50;99.90;;;;;;4995197;28;20037;-71
2023/08/18 04:08:22;;;;;;;12.48;10.77;;;17.50;99.90;;;;;;4991757;28;20412;-72
2023/08/18 04:10:48;;;;;;;13.35;12.00;;;17.50;99.90;;;;;;5004338;28;20293;-72
2023/08/18 04:13:15;;;;;;;13.20;9.90;;;17.40;99.90;;;;;;5004834;28;20025;-70
2023/08/18 04:15:41;;;;;;;12.70;11.38;;;17.40;99.90;;;;;;5017030;28;20489;-73
2023/08/18 04:18:07;;;;;;;14.70;11.48;;;17.40;99.90;;;;;;5012702;28;20040;-72
2023/08/18 04:20:35;;;;;;;13.35;11.95;;;17.40;99.90;;;;;;5009331;28;20052;-71
2023/08/18 04:23:03;;;;;;;12.20;10.82;;;17.40;99.90;;;;;;4990795;28;20048;-72
2023/08/18 04:25:29;;;;;;;14.10;12.68;;;17.40;99.90;;;;;;5008400;28;20040;-70
2023/08/18 04:27:56;;;;;;;13.98;12.57;;;17.50;99.90;;;;;;4991505;28;20075;-72
2023/08/18 04:30:23;;;;;;;10.68;9.57;;;17.40;99.90;;;;;;5006845;28;20036;-72
2023/08/18 04:32:50;;;;;;;12.02;10.82;;;17.40;99.90;;;;;;5018581;28;20029;-71
2023/08/18 04:35:17;;;;;;;17.90;14.73;;;17.40;99.90;;;;;;4987882;28;20038;-72
2023/08/18 04:37:44;;;;;;;11.45;10.35;;;17.40;99.90;;;;;;4998373;28;20048;-72
2023/08/18 04:40:12;;;;;;;10.05;9.05;;;17.40;99.90;;;;;;5012043;28;20439;-72
2023/08/18 04:42:38;;;;;;;10.35;8.90;;;17.40;99.90;;;;;;4996308;28;20040;-73
2023/08/18 04:45:05;;;;;;;13.75;12.02;;;17.50;99.90;;;;;;5011399;28;20044;-73
2023/08/18 04:47:32;;;;;;;14.02;11.90;;;17.40;99.90;;;;;;4981788;28;20806;-73
2023/08/18 04:49:59;;;;;;;11.38;10.18;;;17.40;99.90;;;;;;4978132;28;20048;-71
2023/08/18 04:52:26;;;;;;;16.05;13.82;;;17.50;99.90;;;;;;4996709;28;20458;-74
2023/08/18 04:54:52;;;;;;;17.33;14.63;;;17.50;99.90;;;;;;5004426;28;20029;-74
2023/08/18 04:57:19;;;;;;;12.18;10.80;;;17.50;99.90;;;;;;5005604;28;20025;-75
2023/08/18 04:59:45;;;;;;;13.73;12.32;;;17.50;99.90;;;;;;4995744;28;20389;-74
2023/08/18 05:02:12;;;;;;;16.95;14.70;;;17.50;99.90;;;;;;5007601;28;20638;-69
2023/08/18 05:04:39;;;;;;;13.35;11.65;;;17.50;99.90;;;;;;4986017;28;20596;-70
2023/08/18 05:07:06;;;;;;;17.90;16.05;;;17.50;99.90;;;;;;4991641;28;20052;-70
2023/08/18 05:09:34;;;;;;;19.25;15.68;;;17.50;99.90;;;;;;5007441;28;21683;-70
2023/08/18 05:12:02;;;;;;;14.63;12.68;;;17.50;99.90;;;;;;4989961;28;20034;-71
2023/08/18 05:14:28;;;;;;;20.30;15.43;;;17.50;99.90;;;;;;5012185;28;20127;-69
2023/08/18 05:16:55;;;;;;;15.65;14.00;;;17.50;99.90;;;;;;5016600;28;21769;-70
2023/08/18 05:19:21;;;;;;;16.20;14.18;;;17.50;99.90;;;;;;4980817;28;20515;-71
2023/08/18 05:21:47;;;;;;;17.23;14.43;;;17.50;99.90;;;;;;5011640;28;20701;-72
2023/08/18 05:24:14;;;;;;;11.43;10.25;;;17.60;99.90;;;;;;4989001;28;20040;-72
2023/08/18 05:26:40;;;;;;;18.92;16.92;;;17.60;99.90;;;;;;4991361;28;20103;-72
2023/08/18 05:29:07;;;;;;;12.57;11.35;;;17.70;99.90;;;;;;4986886;28;20060;-73
2023/08/18 05:31:35;;;;;;;18.45;15.05;;;17.70;99.90;;;;;;5008951;28;20041;-69
2023/08/18 05:34:01;;;;;;;14.23;12.20;;;17.80;99.90;;;;;;4985736;28;20475;-70
2023/08/18 05:36:28;;;;;;;14.10;11.82;;;17.80;99.90;;;;;;5010826;28;20036;-71
2023/08/18 05:38:54;;;;;;;16.50;12.73;;;17.90;99.90;;;;;;5019557;28;20031;-73
2023/08/18 05:41:21;;;;;;;18.67;15.98;;;17.90;99.90;;;;;;5016854;28;20368;-75
2023/08/18 05:43:47;;;;;;;17.98;14.43;;;17.90;99.90;;;;;;5002064;28;20029;-72
2023/08/18 05:46:14;;;;;;;18.92;15.80;;;17.80;99.90;;;;;;5011913;28;20048;-76
2023/08/18 05:48:41;;;;;;;13.05;11.02;;;17.90;99.90;;;;;;5010997;28;20460;-70
2023/08/18 05:51:07;;;;;;;13.90;10.45;;;17.90;99.90;;;;;;4991913;28;20667;-70
2023/08/18 05:53:34;;;;;;;14.82;13.15;;;17.90;99.90;;;;;;5011314;28;20051;-70
2023/08/18 05:56:00;;;;;;;15.02;12.55;;;18.10;99.90;;;;;;4992947;28;20044;-71
2023/08/18 05:58:27;;;;;;;18.40;15.00;;;18.10;99.90;;;;;;4993376;28;20052;-71
2023/08/18 06:00:53;;;;;;;14.60;10.93;;;18.10;99.90;;;;;;5018450;28;20031;-71
2023/08/18 06:03:20;;;;;;;19.38;14.38;;;18.20;99.90;;;;;;5002012;28;20029;-70
2023/08/18 06:05:47;;;;;;;17.25;13.27;;;18.20;99.90;;;;;;5017584;28;20032;-70
2023/08/18 06:08:15;;;;;;;15.30;10.07;;;18.30;99.90;;;;;;4994209;28;20412;-71
2023/08/18 06:10:42;;;;;;;14.30;11.20;;;18.30;99.90;;;;;;5011011;28;20072;-71
2023/08/18 06:13:08;;;;;;;11.25;9.13;;;18.30;99.90;;;;;;4984769;28;20033;-71
2023/08/18 06:15:36;;;;;;;15.43;12.48;;;18.40;99.90;;;;;;5010558;28;20036;-72
2023/08/18 06:18:02;;;;;;;15.77;13.20;;;18.50;99.90;;;;;;5009996;28;20041;-75
2023/08/18 06:20:29;;;;;;;15.52;12.90;;;18.60;99.90;;;;;;5007513;28;20531;-72
2023/08/18 06:22:55;;;;;;;16.00;12.13;;;18.60;99.90;;;;;;5016027;28;20036;-72
2023/08/18 06:25:22;;;;;;;17.75;11.05;;;18.60;99.90;;;;;;4999114;28;20542;-75
2023/08/18 06:27:48;;;;;;;15.95;12.95;;;18.70;99.90;;;;;;5018386;28;20029;-75
2023/08/18 06:30:15;;;;;;;15.35;11.60;;;18.70;99.90;;;;;;4993987;28;20072;-72
2023/08/18 06:32:43;;;;;;;18.42;14.52;;;18.80;99.90;;;;;;5008798;28;20030;-70
2023/08/18 06:35:09;;;;;;;25.73;17.95;;;18.80;99.90;;;;;;5010513;28;20029;-69
2023/08/18 06:37:35;;;;;;;17.17;13.55;;;18.80;99.90;;;;;;5006063;28;20040;-71
2023/08/18 06:40:02;;;;;;;18.02;14.27;;;18.80;99.90;;;;;;5020716;28;20070;-69
2023/08/18 06:42:29;;;;;;;17.95;13.40;;;18.80;99.90;;;;;;4992324;28;20847;-70
2023/08/18 06:44:55;;;;;;;13.18;10.52;;;18.80;99.90;;;;;;4998332;28;20044;-70
2023/08/18 06:47:23;;;;;;;14.32;10.32;;;18.80;99.90;;;;;;5019339;28;20028;-71
2023/08/18 06:49:49;;;;;;;12.05;8.95;;;18.90;99.90;;;;;;5017174;28;20498;-71
2023/08/18 06:52:16;;;;;;;20.30;15.77;;;19.00;99.90;;;;;;5010492;28;20052;-71
2023/08/18 06:54:43;;;;;;;19.17;13.85;;;19.10;99.90;;;;;;5008288;28;20923;-70
2023/08/18 06:57:09;;;;;;;18.50;13.90;;;19.20;99.90;;;;;;5010174;28;20048;-69
2023/08/18 06:59:36;;;;;;;14.00;10.52;;;19.20;99.90;;;;;;5010260;28;20455;-70
2023/08/18 07:02:03;;;;;;;18.88;13.98;;;19.30;99.90;;;;;;5005606;28;20036;-74
2023/08/18 07:04:29;;;;;;;16.05;10.50;;;19.30;99.90;;;;;;5011123;28;20040;-76
2023/08/18 07:06:56;;;;;;;15.02;11.98;;;19.40;99.90;;;;;;5005268;28;20028;-72
2023/08/18 07:09:23;;;;;;;14.20;11.25;;;19.40;99.90;;;;;;5020998;28;20601;-74
2023/08/18 07:11:49;;;;;;;17.85;11.48;;;19.40;99.90;;;;;;5019889;28;20487;-74
2023/08/18 07:14:15;;;;;;;12.73;10.07;;;19.40;99.90;;;;;;5013627;28;20514;-73
2023/08/18 07:16:43;;;;;;;13.50;11.07;;;19.40;99.90;;;;;;5011686;28;20037;-73
2023/08/18 07:19:09;;;;;;;10.65;7.57;;;19.50;99.90;;;;;;5011491;28;21410;-76
2023/08/18 07:21:36;;;;;;;9.02;8.02;;;19.50;99.90;;;;;;5013301;28;20353;-82
2023/08/18 07:24:03;;;;;;;9.70;8.70;;;19.60;99.90;;;;;;5011846;28;20021;-73
2023/08/18 07:26:29;;;;;;;8.98;8.07;;;19.80;99.90;;;;;;5012259;28;20060;-74
2023/08/18 07:28:56;;;;;;;9.90;8.50;;;19.90;99.90;;;;;;5022313;28;20037;-84
2023/08/18 07:31:22;;;;;;;10.82;9.80;;;20.00;99.90;;;;;;5019301;28;20071;-77
2023/08/18 07:33:48;;;;;;;11.15;8.90;;;20.10;99.90;;;;;;5018706;28;20060;-78
2023/08/18 07:36:15;;;;;;;9.85;8.85;;;20.20;99.90;;;;;;4982562;28;20025;-77
2023/08/18 07:38:41;;;;;;;8.73;7.75;;;20.30;99.90;;;;;;5011207;28;20483;-75
2023/08/18 07:41:08;;;;;;;14.40;12.25;;;20.40;99.90;;;;;;4979556;28;20048;-79
2023/08/18 07:43:34;;;;;;;12.93;10.85;;;20.40;99.90;;;;;;5012832;28;20504;-75
2023/08/18 07:46:00;;;;;;;12.32;10.68;;;20.40;99.90;;;;;;5004468;28;20472;-73
2023/08/18 07:48:27;;;;;;;11.07;9.60;;;20.40;99.90;;;;;;5011839;28;20029;-74
2023/08/18 07:50:54;;;;;;;12.50;11.20;;;20.50;99.90;;;;;;5019082;28;20116;-77
2023/08/18 07:53:20;;;;;;;13.75;11.93;;;20.60;99.90;;;;;;5002961;28;20040;-76
2023/08/18 07:55:47;;;;;;;12.93;10.48;;;20.60;99.90;;;;;;5018605;28;20392;-77
2023/08/18 07:58:13;;;;;;;13.63;10.20;;;20.70;99.90;;;;;;5011759;28;20029;-75
2023/08/18 08:00:39;;;;;;;11.18;9.05;;;20.70;99.90;;;;;;5010039;28;20213;-75
2023/08/18 08:03:06;;;;;;;9.55;7.38;;;20.80;99.90;;;;;;4994755;28;20304;-76
2023/08/18 08:05:32;;;;;;;12.98;11.68;;;20.90;99.90;;;;;;5014646;28;20036;-78
2023/08/18 08:07:59;;;;;;;15.68;11.60;;;21.00;99.90;;;;;;4990578;28;20036;-73
2023/08/18 08:10:26;;;;;;;16.17;12.20;;;21.10;99.90;;;;;;4996553;28;20407;-75
2023/08/18 08:12:52;;;;;;;10.82;8.65;;;21.20;99.90;;;;;;5020678;28;20036;-77
2023/08/18 08:15:19;;;;;;;12.48;9.90;;;21.20;99.90;;;;;;5004299;28;20068;-75
2023/08/18 08:17:46;;;;;;;11.80;9.93;;;21.30;99.90;;;;;;5018992;28;20021;-77
2023/08/18 08:20:16;;;;;;;11.82;9.98;;;21.30;99.90;;;;;;5011536;28;20048;-74
2023/08/18 08:22:44;;;;;;;10.55;9.32;;;21.50;99.90;;;;;;5012845;28;20407;-73
2023/08/18 08:25:12;;;;;;;11.48;10.38;;;21.50;99.90;;;;;;5011614;28;20055;-76
2023/08/18 08:27:39;;;;;;;11.77;10.57;;;21.60;99.90;;;;;;4995890;28;20048;-76
2023/08/18 08:30:08;;;;;;;13.68;11.50;;;21.70;99.90;;;;;;4979352;28;20472;-77
2023/08/18 08:32:34;;;;;;;11.95;9.63;;;21.80;99.90;;;;;;5013914;28;20365;-76
2023/08/18 08:35:04;;;;;;;8.98;7.57;;;21.80;99.90;;;;;;5022676;28;20040;-76
2023/08/18 08:37:31;;;;;;;7.68;6.22;;;21.90;99.90;;;;;;4988549;28;20240;-77
2023/08/18 08:39:57;;;;;;;8.68;6.60;;;21.90;99.90;;;;;;5019371;28;20029;-78
2023/08/18 08:42:23;;;;;;;9.45;8.55;;;21.90;99.90;;;;;;5010608;28;20096;-76
2023/08/18 08:44:51;;;;;;;9.98;7.63;;;22.10;99.90;;;;;;4985743;28;20033;-77
2023/08/18 08:47:18;;;;;;;8.77;7.85;;;22.20;99.90;;;;;;5007961;28;20040;-78
2023/08/18 08:49:45;;;;;;;8.45;7.55;;;22.20;99.90;;;;;;4976534;28;20411;-73
2023/08/18 08:52:16;;;;;;;11.23;8.82;;;22.30;99.90;;;;;;5009818;28;20026;-78
2023/08/18 08:54:58;;;;;;;9.70;8.13;;;22.40;99.90;;;;;;5013238;28;20044;-77
2023/08/18 08:57:25;;;;;;;10.65;8.98;;;22.50;99.90;;;;;;5003834;28;20048;-75
2023/08/18 08:59:52;;;;;;;6.75;6.10;;;22.50;99.90;;;;;;5020766;28;20037;-75
2023/08/18 09:02:18;;;;;;;10.82;9.05;;;22.50;99.90;;;;;;4998186;28;20040;-76
2023/08/18 09:04:45;;;;;;;7.55;6.85;;;22.60;99.90;;;;;;5010327;28;20229;-75
2023/08/18 09:07:14;;;;;;;7.50;6.78;;;22.60;99.90;;;;;;5005409;28;20041;-78
2023/08/18 09:09:41;;;;;;;8.63;7.30;;;22.60;99.90;;;;;;5012224;28;20059;-75
2023/08/18 09:12:10;;;;;;;9.52;8.52;;;22.60;99.90;;;;;;5009897;28;20025;-77
2023/08/18 09:14:40;;;;;;;9.30;7.97;;;22.60;99.90;;;;;;5013773;28;20424;-73
2023/08/18 09:17:07;;;;;;;9.55;7.88;;;22.70;99.90;;;;;;5010851;28;20047;-77
2023/08/18 09:19:34;;;;;;;9.27;8.35;;;22.90;99.90;;;;;;5023056;28;20046;-76
2023/08/18 09:22:03;;;;;;;8.38;7.57;;;22.90;99.90;;;;;;5020917;28;20037;-74
2023/08/18 09:24:31;;;;;;;8.65;7.05;;;22.90;99.90;;;;;;5005963;28;20268;-78
2023/08/18 09:27:08;;;;;;;9.52;8.63;;;23.00;99.90;;;;;;5012106;28;20134;-74
2023/08/18 09:29:38;;;;;;;9.93;8.32;;;23.10;99.90;;;;;;5013960;28;20943;-78
2023/08/18 09:32:07;;;;;;;6.50;5.82;;;23.30;99.90;;;;;;5009931;28;20037;-74
2023/08/18 09:34:44;;;;;;;7.03;5.22;;;23.50;99.90;;;;;;5009329;28;20404;-78
2023/08/18 09:37:10;;;;;;;7.15;6.25;;;23.70;99.90;;;;;;4994435;28;20057;-77
2023/08/18 09:39:37;;;;;;;10.90;9.43;;;24.10;99.90;;;;;;5014317;28;20047;-74
2023/08/18 09:42:05;;;;;;;7.20;6.47;;;24.40;99.90;;;;;;5021107;28;20033;-75
2023/08/18 09:44:32;;;;;;;7.68;6.90;;;24.60;99.90;;;;;;5019277;28;20037;-78
2023/08/18 09:46:59;;;;;;;6.43;5.43;;;24.70;99.90;;;;;;5012050;28;20052;-76
2023/08/18 09:49:27;;;;;;;9.85;8.10;;;24.80;99.90;;;;;;5010129;28;20036;-76
2023/08/18 09:52:06;;;;;;;5.97;5.43;;;24.80;99.90;;;;;;5004611;28;20434;-81
2023/08/18 09:54:59;;;;;;;6.72;6.13;;;24.80;99.90;;;;;;4970783;28;20417;-77
2023/08/18 09:57:32;;;;;;;8.05;6.60;;;24.80;99.90;;;;;;4993709;28;20395;-85
2023/08/18 10:00:01;;;;;;;5.20;4.68;;;24.80;99.90;;;;;;5007636;28;20029;-75
2023/08/18 10:02:39;;;;;;;4.22;3.83;;;24.80;99.90;;;;;;5014685;28;20033;-80
2023/08/18 10:05:06;;;;;;;5.57;4.85;;;25.00;99.90;;;;;;5019097;28;20460;-80
2023/08/18 10:07:33;;;;;;;6.28;5.60;;;25.10;99.90;;;;;;4999044;28;20041;-77
2023/08/18 10:10:00;;;;;;;5.57;4.78;;;25.30;99.90;;;;;;5028422;28;20032;-79
2023/08/18 10:12:27;;;;;;;5.97;5.40;;;25.50;99.90;;;;;;4997921;28;20568;-90
2023/08/18 10:14:54;;;;;;;6.00;5.40;;;25.50;99.90;;;;;;5010455;28;20388;-82
2023/08/18 10:17:23;;;;;;;6.10;5.35;;;25.70;99.90;;;;;;5011519;28;20037;-82
2023/08/18 10:19:56;;;;;;;7.15;6.55;;;25.90;99.90;;;;;;4991770;28;20695;-82
2023/08/18 10:22:25;;;;;;;5.20;4.70;;;26.00;99.90;;;;;;5008292;28;20037;-86
2023/08/18 10:24:52;;;;;;;7.03;6.43;;;26.20;99.90;;;;;;5018824;28;20040;-75
2023/08/18 10:27:40;;;;;;;6.28;4.78;;;26.30;99.90;;;;;;4998003;28;20037;-76
2023/08/18 10:30:08;;;;;;;5.90;5.25;;;26.50;99.90;;;;;;4999882;28;20047;-75
2023/08/18 10:32:35;;;;;;;6.38;5.03;;;26.80;99.90;;;;;;4974663;28;20037;-76
2023/08/18 10:35:22;;;;;;;5.20;4.68;;;27.10;99.90;;;;;;5008588;28;20037;-88
2023/08/18 10:37:58;;;;;;;6.28;5.05;;;27.40;99.90;;;;;;4992265;28;20028;-74
2023/08/18 10:40:33;;;;;;;7.25;5.53;;;27.80;99.90;;;;;;4992401;28;20044;-80
2023/08/18 10:43:14;;;;;;;8.20;5.88;;;28.00;99.90;;;;;;5014382;28;20051;-72
2023/08/18 10:45:41;;;;;;;4.93;4.53;;;28.30;99.90;;;;;;5000185;28;20044;-78
2023/08/18 10:48:09;;;;;;;6.05;5.53;;;28.60;99.90;;;;;;5021358;28;20377;-75
2023/08/18 10:50:38;;;;;;;6.45;5.85;;;28.80;99.90;;;;;;5004906;28;20052;-74
2023/08/18 10:53:04;;;;;;;5.80;4.68;;;29.10;99.90;;;;;;4983255;28;20037;-79
2023/08/18 10:55:31;;;;;;;5.65;5.15;;;29.40;99.90;;;;;;4997528;28;20033;-79
2023/08/18 10:57:58;;;;;;;5.57;4.97;;;29.60;99.90;;;;;;5014266;28;20033;-80
2023/08/18 11:00:25;;;;;;;6.97;6.28;;;30.00;99.90;;;;;;4988981;28;20021;-77
2023/08/18 11:02:52;;;;;;;5.75;5.07;;;30.30;99.90;;;;;;5023684;28;20040;-75
2023/08/18 11:05:20;;;;;;;4.30;3.95;;;30.50;99.90;;;;;;5006610;28;20044;-79
2023/08/18 11:07:47;;;;;;;4.90;4.45;;;30.70;99.90;;;;;;4992370;28;20519;-75
2023/08/18 11:10:19;;;;;;;5.88;5.38;;;30.90;99.90;;;;;;4996309;28;21177;-73
2023/08/18 11:12:47;;;;;;;5.43;4.93;;;31.00;99.90;;;;;;5013588;28;20048;-78
2023/08/18 11:15:14;;;;;;;6.57;5.72;;;31.10;99.90;;;;;;4996557;28;20481;-77
2023/08/18 11:17:41;;;;;;;8.10;7.30;;;31.20;99.90;;;;;;5012610;28;20463;-78
2023/08/18 11:20:11;;;;;;;7.78;7.18;;;31.20;99.90;;;;;;5011509;28;20055;-75
2023/08/18 11:22:44;;;;;;;6.35;5.82;;;31.10;99.90;;;;;;5013653;28;20095;-76
2023/08/18 11:25:16;;;;;;;4.82;4.38;;;31.20;99.90;;;;;;5021228;28;20396;-74
2023/08/18 11:27:45;;;;;;;5.45;4.13;;;31.50;99.90;;;;;;5003536;28;20040;-76
2023/08/18 11:30:13;;;;;;;4.93;4.53;;;31.80;99.90;;;;;;5013535;28;20398;-77
2023/08/18 11:32:41;;;;;;;4.97;4.47;;;32.20;99.70;;;;;;5014628;28;20033;-76
2023/08/18 11:35:09;;;;;;;5.32;4.40;;;32.50;98.90;;;;;;4995438;28;21231;-76
2023/08/18 11:37:44;;;;;;;4.95;4.55;;;32.90;98.50;;;;;;4996801;28;20408;-76
2023/08/18 11:40:13;;;;;;;4.95;4.50;;;33.20;97.70;;;;;;5009341;28;20063;-75
2023/08/18 11:42:41;;;;;;;6.10;4.93;;;33.40;97.20;;;;;;4979680;28;20064;-75
2023/08/18 11:45:10;;;;;;;6.80;6.20;;;33.70;96.50;;;;;;5010643;28;20486;-80
2023/08/18 11:47:38;;;;;;;4.93;4.53;;;33.80;95.80;;;;;;5024287;28;20515;-81
2023/08/18 11:50:07;;;;;;;5.63;5.13;;;34.00;95.30;;;;;;4997713;28;20041;-85
2023/08/18 11:52:43;;;;;;;5.88;5.32;;;34.00;94.60;;;;;;5037043;28;20815;-79
2023/08/18 11:55:11;;;;;;;5.28;4.78;;;34.20;94.30;;;;;;5024124;28;20029;-79
2023/08/18 11:57:40;;;;;;;4.78;4.38;;;34.20;93.70;;;;;;5016003;28;20041;-80
2023/08/18 12:00:14;;;;;;;5.88;5.35;;;34.40;93.50;;;;;;5027439;28;20028;-72
2023/08/18 12:02:43;;;;;;;5.32;4.88;;;34.60;93.00;;;;;;5011849;28;20029;-79
2023/08/18 12:05:23;;;;;;;5.32;3.47;;;34.50;91.80;;;;;;5012942;28;20033;-78
2023/08/18 12:07:51;;;;;;;3.88;3.55;;;34.60;92.30;;;;;;4979556;28;20041;-79
2023/08/18 12:10:19;;;;;;;5.50;5.10;;;34.90;92.00;;;;;;4980508;28;20060;-78
2023/08/18 12:12:56;;;;;;;4.93;4.22;;;35.20;91.60;;;;;;5016803;28;20452;-79
2023/08/18 12:15:25;;;;;;;3.97;3.67;;;35.50;91.20;;;;;;5021190;28;20048;-78
2023/08/18 12:17:52;;;;;;;6.65;6.15;;;35.80;90.90;;;;;;5002695;28;20028;-78
2023/08/18 12:20:19;;;;;;;7.13;6.43;;;36.00;90.00;;;;;;5008540;28;20044;-75
2023/08/18 12:22:49;;;;;;;6.78;6.15;;;36.10;87.90;;;;;;5024951;28;20409;-81
2023/08/18 12:25:22;;;;;;;5.85;5.32;;;36.00;86.70;;;;;;4979899;28;20037;-78
2023/08/18 12:27:49;;;;;;;7.10;5.85;;;35.90;86.40;;;;;;4997809;28;20029;-78
2023/08/18 12:30:17;;;;;;;4.18;3.78;;;36.00;86.90;;;;;;4995296;28;20121;-75
2023/08/18 12:32:45;;;;;;;5.05;4.55;;;36.30;86.50;;;;;;4991731;28;20052;-77
2023/08/18 12:35:12;;;;;;;7.38;6.60;;;36.30;85.40;;;;;;5003730;28;20053;-74
2023/08/18 12:37:38;;;;;;;6.03;4.15;;;36.00;84.80;;;;;;5025646;28;20314;-75
2023/08/18 12:40:06;;;;;;;6.47;5.88;;;35.70;84.80;;;;;;4984880;28;20042;-81
2023/08/18 12:42:33;;;;;;;6.85;5.65;;;35.80;84.70;;;;;;4995461;28;20059;-80
2023/08/18 12:44:59;;;;;;;4.78;4.07;;;36.00;84.50;;;;;;5011780;28;20048;-79